Time;durP1;ratioP1;P1;durP2;ratioP2;P2;SDS_P1;SDS_P2;PMS_P1;PMS_P2;Temp;Humidity;BMP_temperature;BMP_pressure;BME280_temperature;BME280_humidity;BME280_pressure;Samples;Min_cycle;Max_cycle;Signal;HPM_P1;HPM_P2
2023/08/11 00:01:21;;;;;;;;;;;;;;;;;;;;;
2023/08/11 00:04:20;;;;;;;2.90;2.80;;;;;;;-144.30;67.84;84915.38;5071497;28;20229;-55
2023/08/11 00:10:21;;;;;;;2.60;2.47;;;;;;;-144.30;67.19;84899.47;5068123;28;20215;-50
2023/08/11 00:13:12;;;;;;;2.97;2.60;;;;;;;-144.30;67.40;84899.47;5071930;28;20203;-50
2023/08/11 00:16:04;;;;;;;2.75;2.55;;;;;;;-144.30;67.47;84917.38;5070279;28;20250;-54
2023/08/11 00:18:57;;;;;;;2.90;2.72;;;;;;;-144.30;67.50;84901.47;5071521;28;20298;-55
2023/08/11 00:22:05;;;;;;;2.63;2.42;;;;;;;-144.30;67.58;84879.59;5071253;28;20199;-50
2023/08/11 00:25:04;;;;;;;8.15;2.88;;;;;;;-144.30;67.21;84909.41;5071596;28;20200;-55
2023/08/11 00:28:00;;;;;;;2.70;2.50;;;;;;;-144.30;67.36;84911.41;5032062;28;20193;-55
2023/08/11 00:30:48;;;;;;;4.18;2.80;;;;;;;-144.30;67.18;84933.28;5030441;28;20267;-55
2023/08/11 00:33:46;;;;;;;2.80;2.60;;;;;;;-144.30;67.00;84889.53;5031766;28;20194;-55
2023/08/11 00:36:34;;;;;;;2.92;2.60;;;;;;;-144.30;66.80;84907.44;5031489;28;20700;-51
2023/08/11 00:39:33;;;;;;;4.20;2.47;;;;;;;-144.30;67.19;84923.34;5031012;28;20642;-50
2023/08/11 00:42:34;;;;;;;2.30;2.20;;;;;;;-144.30;67.11;84915.38;5029683;28;20267;-50
2023/08/11 00:45:13;;;;;;;2.55;2.42;;;;;;;-144.30;66.82;84943.22;5030035;28;20197;-54
2023/08/11 00:47:57;;;;;;;3.00;2.65;;;;;;;-144.30;66.70;84923.34;5031109;28;20640;-50
2023/08/11 00:50:57;;;;;;;2.80;2.60;;;;;;;-144.30;66.49;84935.25;5031719;28;20773;-51
2023/08/11 00:53:53;;;;;;;3.00;2.47;;;;;;;-144.30;66.44;84919.34;5031800;28;20612;-55
2023/08/11 00:57:07;;;;;;;2.50;2.40;;;;;;;-144.30;66.46;84909.41;5030536;28;20224;-55
2023/08/11 01:00:00;;;;;;;3.00;2.78;;;;;;;-144.30;66.53;84931.28;5031338;28;20215;-55
2023/08/11 01:02:56;;;;;;;3.25;2.40;;;;;;;-144.30;66.47;84937.25;5031259;28;20229;-55
2023/08/11 01:05:57;;;;;;;2.25;2.15;;;;;;;-144.30;66.23;84933.28;5031372;28;20201;-51
2023/08/11 01:08:52;;;;;;;2.92;2.55;;;;;;;-144.30;66.49;84955.13;5030837;28;20205;-51
2023/08/11 01:12:10;;;;;;;2.85;2.65;;;;;;;-144.30;66.40;84973.03;5029094;28;20208;-55
2023/08/11 01:15:13;;;;;;;2.83;2.40;;;;;;;-144.30;66.17;84923.34;5030971;28;20212;-55
2023/08/11 01:17:57;;;;;;;3.50;2.65;;;;;;;-144.30;66.27;85002.84;5030342;28;20249;-56
2023/08/11 01:20:52;;;;;;;4.00;2.20;;;;;;;-144.30;66.11;84927.31;5030696;28;20715;-49
2023/08/11 01:24:05;;;;;;;3.00;2.80;;;;;;;-144.30;66.58;84935.25;5030693;28;20723;-54
2023/08/11 01:26:57;;;;;;;3.13;2.28;;;;;;;-144.30;66.66;84941.22;5062152;28;20313;-51
2023/08/11 01:29:48;;;;;;;3.25;2.42;;;;;;;-144.30;66.87;84986.94;5070482;28;20192;-54
2023/08/11 01:35:30;;;;;;;3.17;2.63;;;;;;;-144.30;67.07;84979.00;5069960;28;20265;-51
2023/08/11 01:38:25;;;;;;;2.42;2.33;;;;;;;-144.30;66.86;84969.06;5069650;28;20196;-55
2023/08/11 01:41:22;;;;;;;3.10;2.60;;;;;;;-144.30;66.83;85006.81;5068742;28;20192;-56
2023/08/11 01:44:24;;;;;;;3.22;2.13;;;;;;;-144.30;66.37;84994.91;5070401;28;20216;-51
2023/08/11 01:47:20;;;;;;;2.50;2.40;;;;;;;-144.30;66.04;84980.97;5069661;28;20599;-55
2023/08/11 01:50:04;;;;;;;4.07;2.90;;;;;;;-144.30;65.82;84996.88;5069616;28;20195;-50
2023/08/11 01:53:08;;;;;;;2.63;2.42;;;;;;;-144.30;65.73;84994.91;5070246;28;20200;-51
2023/08/11 01:56:08;;;;;;;2.67;2.58;;;;;;;-144.30;66.05;84971.03;5070253;28;20218;-55
2023/08/11 01:59:08;;;;;;;2.30;2.20;;;;;;;-144.30;66.07;84967.06;5069348;28;20759;-51
2023/08/11 02:05:14;;;;;;;2.50;2.40;;;;;;;-144.30;66.05;84959.13;5070058;28;20581;-55
2023/08/11 02:08:19;;;;;;;;;;;;;;;;;;;;;
2023/08/11 02:11:09;;;;;;;3.33;2.70;;;;;;;-144.30;66.97;84996.88;5068850;28;20210;-51
2023/08/11 02:17:06;;;;;;;3.22;3.03;;;;;;;-144.30;66.95;84979.00;4548853;27;16891216;-50
2023/08/11 02:19:58;;;;;;;3.17;2.83;;;;;;;-144.30;67.19;85008.81;5127856;28;20204;-55
2023/08/11 02:22:52;;;;;;;3.10;2.90;;;;;;;-144.30;67.16;85036.63;5126277;28;20561;-51
2023/08/11 02:25:46;;;;;;;4.32;2.75;;;;;;;-144.30;67.00;85018.75;5126822;28;20225;-55
2023/08/11 02:28:51;;;;;;;3.00;2.58;;;;;;;-144.30;67.15;85006.81;5125521;28;20280;-50
2023/08/11 02:31:42;;;;;;;2.90;2.80;;;;;;;-144.30;67.26;85010.78;5127652;28;20286;-49
2023/08/11 02:37:42;;;;;;;2.67;2.58;;;;;;;-144.30;68.23;85066.44;5127730;28;20198;-51
2023/08/11 02:40:38;;;;;;;2.83;2.63;;;;;;;-144.30;67.77;85054.53;5122289;28;20682;-54
2023/08/11 02:43:39;;;;;;;3.10;2.90;;;;;;;-144.30;67.76;85058.50;5125744;28;20662;-51
2023/08/11 02:46:32;;;;;;;5.45;3.03;;;;;;;-144.30;67.58;85036.63;5126951;28;20201;-55
2023/08/11 02:52:37;;;;;;;4.13;2.83;;;;;;;-144.30;67.73;85030.66;5127229;28;20202;-49
2023/08/11 02:55:20;;;;;;;4.00;3.00;;;;;;;-144.30;67.98;85028.69;5126846;28;20221;-51
2023/08/11 02:57:57;;;;;;;3.35;3.10;;;;;;;-144.30;67.87;85050.53;5127202;28;20686;-55
2023/08/11 03:03:30;;;;;;;3.20;3.00;;;;;;;-144.30;67.75;84998.88;5120759;28;20279;-54
2023/08/11 03:09:10;;;;;;;3.40;3.10;;;;;;;-144.30;67.72;85050.53;5121448;28;20205;-51
2023/08/11 03:11:44;;;;;;;2.85;2.70;;;;;;;-144.30;67.67;85050.53;5127210;28;20190;-51
2023/08/11 03:14:14;;;;;;;3.20;3.00;;;;;;;-144.30;68.04;85010.78;5126764;28;20292;-55
2023/08/11 03:17:00;;;;;;;3.00;2.83;;;;;;;-144.30;68.06;85024.72;5085871;28;20662;-50
2023/08/11 03:19:34;;;;;;;5.63;2.75;;;;;;;-144.30;67.99;85038.63;5084565;28;20253;-51
2023/08/11 03:22:19;;;;;;;3.20;3.00;;;;;;;-144.30;68.08;85042.59;5085999;28;20757;-54
2023/08/11 03:24:58;;;;;;;3.30;3.10;;;;;;;-144.30;67.81;85044.59;5085876;28;20253;-51
2023/08/11 03:27:35;;;;;;;5.05;3.22;;;;;;;-144.30;67.49;85018.75;5074097;28;20196;-55
2023/08/11 03:30:13;;;;;;;4.38;3.05;;;;;;;-144.30;67.58;85042.59;5069780;28;20258;-55
2023/08/11 03:32:58;;;;;;;3.85;2.75;;;;;;;-144.30;67.49;85038.63;5072369;28;20245;-55
2023/08/11 03:35:49;;;;;;;6.50;3.40;;;;;;;-144.30;67.88;85040.59;5069469;28;20219;-49
2023/08/11 03:39:06;;;;;;;3.05;2.92;;;;;;;-144.30;68.13;85050.53;5070082;28;20621;-56
2023/08/11 03:42:04;;;;;;;4.85;4.38;;;;;;;-144.30;68.53;85042.59;5071849;28;20204;-50
2023/08/11 03:44:51;;;;;;;4.97;3.42;;;;;;;-144.30;68.76;85092.28;5071724;28;20325;-55
2023/08/11 03:47:35;;;;;;;4.03;3.40;;;;;;;-144.30;68.81;85038.63;5055125;28;20212;-50
2023/08/11 03:50:15;;;;;;;8.60;3.75;;;;;;;-144.30;68.30;84929.28;5049422;28;20212;-51
2023/08/11 03:53:05;;;;;;;4.65;3.67;;;;;;;-144.30;67.89;85026.69;5051897;28;20199;-49
2023/08/11 03:55:37;;;;;;;5.50;3.47;;;;;;;-144.30;67.54;84980.97;5051606;28;20232;-49
2023/08/11 03:58:20;;;;;;;4.65;3.90;;;;;;;-144.30;66.90;84967.06;5051400;28;20236;-55
2023/08/11 04:00:54;;;;;;;3.65;3.28;;;;;;;-144.30;66.32;84971.03;5051730;28;20616;-55
2023/08/11 04:03:52;;;;;;;5.10;4.03;;;;;;;-144.30;65.52;84935.25;5051603;28;20200;-55
2023/08/11 04:06:32;;;;;;;5.00;3.40;;;;;;;-144.30;63.99;84859.72;5050413;28;20197;-55
2023/08/11 04:09:14;;;;;;;3.58;3.28;;;;;;;-144.30;59.86;84666.94;5050344;28;20232;-55
2023/08/11 04:12:02;;;;;;;5.13;3.15;;;;;;;-144.30;55.25;84430.44;5050376;28;20288;-56
2023/08/11 04:14:39;;;;;;;5.97;3.15;;;;;;;-144.30;51.36;84255.53;5058292;28;20640;-55
2023/08/11 04:17:16;;;;;;;4.90;2.90;;;;;;;-144.30;48.02;84056.81;5104616;28;20199;-54
2023/08/11 04:19:55;;;;;;;3.20;3.00;;;;;;;-144.30;45.20;83852.16;5107740;28;20216;-55
2023/08/11 04:22:36;;;;;;;7.00;3.10;;;;;;;-144.30;43.33;83709.09;5110138;28;20230;-50
2023/08/11 04:25:15;;;;;;;3.20;3.10;;;;;;;-144.30;40.74;83508.41;5109661;28;20231;-55
2023/08/11 04:27:56;;;;;;;3.20;3.00;;;;;;;-144.30;39.41;83377.28;5110884;28;20190;-51
2023/08/11 04:30:34;;;;;;;3.80;2.95;;;;;;;-144.30;37.74;83130.94;5110342;28;20191;-55
2023/08/11 04:33:14;;;;;;;8.15;3.78;;;;;;;-144.30;35.80;82854.78;5110413;28;20198;-51
2023/08/11 04:35:51;;;;;;;6.15;3.13;;;;;;;-144.30;34.63;82554.84;5110847;28;20214;-52
2023/08/11 04:38:30;;;;;;;3.65;3.15;;;;;;;-144.30;33.62;82590.59;5108657;28;20281;-51
2023/08/11 04:41:09;;;;;;;5.38;2.90;;;;;;;-144.30;32.73;82455.53;5107069;28;20682;-52
2023/08/11 04:43:53;;;;;;;4.80;3.20;;;;;;;-144.30;32.85;82463.47;5107706;28;20198;-56
2023/08/11 04:46:30;;;;;;;3.53;3.13;;;;;;;-144.30;31.91;82320.47;5105810;28;20662;-56
2023/08/11 04:49:10;;;;;;;3.20;3.00;;;;;;;-144.30;31.41;82199.31;5104975;28;20194;-51
2023/08/11 04:51:51;;;;;;;2.72;2.63;;;;;;;-144.30;30.89;82151.66;5107972;28;20252;-51
2023/08/11 04:54:28;;;;;;;3.40;3.10;;;;;;;-144.30;30.37;81955.03;5107746;28;20198;-52
2023/08/11 04:57:03;;;;;;;3.85;2.65;;;;;;;-144.30;29.70;81821.97;5110203;28;20225;-56
2023/08/11 04:59:44;;;;;;;3.10;2.75;;;;;;;-144.30;29.34;81841.84;5110742;28;20201;-52
2023/08/11 05:02:20;;;;;;;3.22;3.05;;;;;;;-144.30;29.79;81873.63;5109052;28;20190;-53
2023/08/11 05:04:55;;;;;;;3.05;2.75;;;;;;;-144.30;28.96;81702.84;5109419;28;20584;-52
2023/08/11 05:07:25;;;;;;;2.78;2.60;;;;;;;-144.30;29.37;81684.97;5107011;28;20601;-52
2023/08/11 05:10:07;;;;;;;4.03;2.75;;;;;;;-144.30;28.97;81641.28;5110712;28;20658;-56
2023/08/11 05:13:07;;;;;;;4.47;3.30;;;;;;;-144.30;28.19;81490.34;5100808;28;20205;-56
2023/08/11 05:15:42;;;;;;;3.38;2.75;;;;;;;-144.30;28.54;81530.06;5108120;28;20317;-56
2023/08/11 05:18:28;;;;;;;3.03;2.55;;;;;;;-144.30;28.00;81297.75;5110593;28;20198;-51
2023/08/11 05:21:14;;;;;;;4.22;2.80;;;;;;;-144.30;27.55;81067.44;5108076;28;20463;-55
2023/08/11 05:24:06;;;;;;;2.67;2.47;;;;;;;-144.30;27.25;81051.53;5110661;28;20201;-51
2023/08/11 05:26:54;;;;;;;8.10;2.90;;;;;;;-144.30;26.72;81017.78;5108089;28;20314;-56
2023/08/11 05:29:44;;;;;;;3.33;3.13;;;;;;;-144.30;26.87;80974.13;5109327;28;20198;-56
2023/08/11 05:32:42;;;;;;;3.20;3.00;;;;;;;-144.30;26.80;81208.41;5110341;28;20229;-56
2023/08/11 05:38:37;;;;;;;4.22;4.00;;;;;;;-144.30;27.02;81164.72;5110107;28;20279;-55
2023/08/11 05:41:25;;;;;;;3.63;3.35;;;;;;;-144.30;26.77;81077.34;5107962;28;20316;-55
2023/08/11 05:44:09;;;;;;;9.00;8.05;;;;;;;-144.30;26.79;81252.09;5107261;28;20201;-55
2023/08/11 05:47:08;;;;;;;11.38;7.15;;;;;;;-144.30;27.25;81438.72;5108512;28;20210;-56
2023/08/11 05:49:39;;;;;;;4.38;3.88;;;;;;;-144.30;27.30;81359.31;5109704;28;20662;-52
2023/08/11 05:55:36;;;;;;;8.15;4.88;;;;;;;-144.30;26.94;81387.09;5109760;28;20198;-52
2023/08/11 05:58:04;;;;;;;5.85;5.30;;;;;;;-144.30;26.81;81275.91;5109379;28;20194;-57
2023/08/11 06:00:35;;;;;;;7.18;6.45;;;;;;;-144.30;27.17;81301.72;5108855;28;20198;-57
2023/08/11 06:03:05;;;;;;;6.93;3.78;;;;;;;-144.30;26.56;81180.59;5108750;28;20205;-52
2023/08/11 06:05:37;;;;;;;7.22;3.65;;;;;;;-144.30;26.58;81244.13;5110478;28;20189;-52
2023/08/11 06:08:08;;;;;;;4.60;4.20;;;;;;;-144.30;26.89;81182.59;5109577;28;20193;-52
2023/08/11 06:10:37;;;;;;;5.60;4.38;;;;;;;-144.30;27.27;81319.59;5110081;28;20220;-56
2023/08/11 06:13:10;;;;;;;4.38;3.20;;;;;;;-144.30;26.89;81287.81;5107139;28;20202;-56
2023/08/11 06:15:41;;;;;;;6.18;3.92;;;;;;;-144.30;26.96;81212.38;5109552;28;20706;-56
2023/08/11 06:18:12;;;;;;;6.40;5.78;;;;;;;-144.30;26.79;81260.03;5109469;28;20201;-56
2023/08/11 06:20:42;;;;;;;8.25;4.07;;;;;;;-144.30;27.18;81281.88;5107068;28;20205;-55
2023/08/11 06:23:15;;;;;;;16.13;7.00;;;;;;;-144.30;27.40;81430.78;5108386;28;20205;-55
2023/08/11 06:25:49;;;;;;;3.38;3.10;;;;;;;-144.30;27.12;81387.09;5106261;28;20239;-53
2023/08/11 06:28:21;;;;;;;7.70;3.67;;;;;;;-144.30;27.42;81454.63;5103455;28;20204;-53
2023/08/11 06:30:58;;;;;;;5.90;2.80;;;;;;;-144.30;27.79;81460.56;5109201;28;20190;-52
2023/08/11 06:33:33;;;;;;;7.85;3.55;;;;;;;-144.30;27.76;81401.00;5109624;28;20662;-52
2023/08/11 06:36:07;;;;;;;3.08;2.75;;;;;;;-144.30;27.86;81504.25;5109387;28;20228;-53
2023/08/11 06:38:39;;;;;;;5.25;4.85;;;;;;;-144.30;27.93;81490.34;5109515;28;20202;-52
2023/08/11 06:41:08;;;;;;;4.18;3.30;;;;;;;-144.30;28.29;81577.72;5109265;28;20688;-52
2023/08/11 06:43:40;;;;;;;6.75;4.20;;;;;;;-144.30;28.22;81851.78;5102893;28;20209;-53
2023/08/11 06:46:11;;;;;;;6.38;5.97;;;;;;;-144.30;28.12;81553.91;5108544;28;20200;-52
2023/08/11 06:48:41;;;;;;;4.55;4.18;;;;;;;-144.30;28.20;81581.69;5109171;28;20707;-51
2023/08/11 06:51:13;;;;;;;21.52;4.97;;;;;;;-144.30;28.00;81595.59;5108880;28;20194;-55
2023/08/11 06:53:42;;;;;;;8.57;5.13;;;;;;;-144.30;27.88;81563.81;5108889;28;20202;-52
2023/08/11 06:56:15;;;;;;;7.38;5.93;;;;;;;-144.30;28.11;81494.31;5109052;28;20301;-54
2023/08/11 06:58:45;;;;;;;3.53;2.92;;;;;;;-144.30;27.96;81383.13;5107605;28;20205;-51
2023/08/11 07:01:17;;;;;;;5.18;4.38;;;;;;;-144.30;27.80;81363.28;5109326;28;20202;-51
2023/08/11 07:03:45;;;;;;;3.30;3.03;;;;;;;-144.30;27.76;81430.78;5113100;28;20205;-51
2023/08/11 07:06:17;;;;;;;5.00;2.92;;;;;;;-144.30;28.17;81561.84;5112769;28;20197;-51
2023/08/11 07:08:51;;;;;;;3.38;2.63;;;;;;;-144.30;28.75;81657.16;5112762;28;20201;-57
2023/08/11 07:11:25;;;;;;;5.50;2.90;;;;;;;-144.30;28.58;81682.97;5112135;28;20285;-51
2023/08/11 07:13:56;;;;;;;3.33;3.13;;;;;;;-144.30;28.61;81641.28;5100008;28;20271;-56
2023/08/11 07:16:27;;;;;;;8.10;2.70;;;;;;;-144.30;28.30;81633.31;5112562;28;20238;-56
2023/08/11 07:18:57;;;;;;;3.53;3.33;;;;;;;-144.30;28.32;81573.75;5111368;28;20733;-53
2023/08/11 07:21:30;;;;;;;2.95;2.70;;;;;;;-144.30;27.87;81462.56;5112823;28;20198;-51
2023/08/11 07:24:02;;;;;;;3.97;2.95;;;;;;;-144.30;27.68;81299.72;5111341;28;20285;-56
2023/08/11 07:26:32;;;;;;;3.28;3.05;;;;;;;-144.30;27.47;81232.22;5112281;28;20690;-55
2023/08/11 07:29:02;;;;;;;5.60;4.07;;;;;;;-144.30;27.08;81061.47;5111252;28;20588;-53
2023/08/11 07:31:35;;;;;;;6.07;4.30;;;;;;;-144.30;26.51;80892.72;5112707;28;20198;-57
2023/08/11 07:34:08;;;;;;;11.48;6.50;;;;;;;-144.30;25.99;80708.09;5112224;28;20198;-51
2023/08/11 07:36:46;;;;;;;8.43;5.60;;;;;;;-144.30;26.49;81013.81;5112127;28;20698;-59
2023/08/11 07:39:16;;;;;;;3.30;2.83;;;;;;;-144.30;26.29;81013.81;5112400;28;20258;-52
2023/08/11 07:41:47;;;;;;;5.10;3.90;;;;;;;-144.30;26.33;80982.06;5111839;28;20197;-52
2023/08/11 07:44:15;;;;;;;6.95;3.38;;;;;;;-144.30;25.86;80928.44;5112128;28;20289;-52
2023/08/11 07:46:46;;;;;;;6.28;5.65;;;;;;;-144.30;26.02;80904.63;5111843;28;20182;-51
2023/08/11 07:49:15;;;;;;;4.47;4.07;;;;;;;-144.30;25.94;80948.31;5111793;28;20190;-56
2023/08/11 07:51:48;;;;;;;3.55;3.25;;;;;;;-144.30;25.89;80978.09;5111787;28;20194;-56
2023/08/11 07:54:19;;;;;;;3.80;3.33;;;;;;;-144.30;25.95;80872.88;5112202;28;20622;-52
2023/08/11 07:56:48;;;;;;;3.72;3.42;;;;;;;-144.30;25.26;80791.47;5111677;28;20218;-56
2023/08/11 07:59:18;;;;;;;9.75;3.70;;;;;;;-144.30;25.37;81055.50;5111967;28;20251;-51
2023/08/11 08:01:51;;;;;;;4.20;3.83;;;;;;;-144.30;25.29;80614.78;5112130;28;20205;-52
2023/08/11 08:04:19;;;;;;;6.40;3.60;;;;;;;-144.30;25.80;80600.88;5111981;28;20198;-56
2023/08/11 08:06:51;;;;;;;7.97;3.53;;;;;;;-144.30;25.09;80656.47;5111953;28;20201;-52
2023/08/11 08:09:21;;;;;;;5.43;3.33;;;;;;;-144.30;24.76;80610.81;5111995;28;20281;-52
2023/08/11 08:11:52;;;;;;;2.80;2.60;;;;;;;-144.30;24.99;80692.19;5105246;28;20218;-51
2023/08/11 08:14:23;;;;;;;2.20;2.10;;;;;;;-144.30;25.08;80849.03;5088469;28;20191;-52
2023/08/11 08:16:54;;;;;;;6.13;2.20;;;;;;;-144.30;25.37;80926.47;5089903;28;20607;-52
2023/08/11 08:19:27;;;;;;;2.33;1.80;;;;;;;-144.30;25.52;81053.53;5090916;28;20647;-51
2023/08/11 08:22:01;;;;;;;5.40;2.15;;;;;;;-144.30;25.27;81077.34;5091108;28;20263;-52
2023/08/11 08:24:31;;;;;;;2.22;2.13;;;;;;;-144.30;25.44;81134.94;5101148;28;20687;-52
2023/08/11 08:27:00;;;;;;;1.80;1.70;;;;;;;-144.30;25.20;81081.34;5111087;28;20194;-56
2023/08/11 08:29:32;;;;;;;2.60;2.40;;;;;;;-144.30;25.75;81367.25;5098901;28;20714;-56
2023/08/11 08:32:03;;;;;;;7.85;2.30;;;;;;;-144.30;26.17;81281.88;5111102;28;20293;-52
2023/08/11 08:34:34;;;;;;;1.90;1.80;;;;;;;-144.30;25.40;81222.28;5111083;28;20329;-56
2023/08/11 08:37:07;;;;;;;2.47;2.05;;;;;;;-144.30;25.99;81186.56;5099247;28;20681;-56
2023/08/11 08:39:38;;;;;;;4.95;2.20;;;;;;;-144.30;25.25;81160.75;5110606;28;20700;-52
2023/08/11 08:42:10;;;;;;;2.08;1.98;;;;;;;-144.30;25.78;81174.66;5111023;28;20634;-51
2023/08/11 08:44:42;;;;;;;3.08;2.20;;;;;;;-144.30;25.89;81148.84;5111115;28;20194;-51
2023/08/11 08:47:20;;;;;;;1.80;1.70;;;;;;;-144.30;25.64;81172.66;5110440;28;20251;-52
2023/08/11 08:49:53;;;;;;;2.63;2.17;;;;;;;-144.30;25.79;81317.59;5111338;28;20251;-55
2023/08/11 08:52:28;;;;;;;2.10;1.90;;;;;;;-144.30;26.00;81470.50;5111597;28;20198;-52
2023/08/11 08:55:00;;;;;;;2.28;2.17;;;;;;;-144.30;26.17;81557.88;5108324;28;20300;-52
2023/08/11 08:57:28;;;;;;;3.33;2.25;;;;;;;-144.30;26.81;81871.63;5110009;28;20580;-57
2023/08/11 09:00:02;;;;;;;1.65;1.60;;;;;;;-144.30;26.99;81986.81;5110006;28;20201;-56
2023/08/11 09:02:36;;;;;;;1.90;1.80;;;;;;;-144.30;27.31;82030.50;5110585;28;20202;-56
2023/08/11 09:05:07;;;;;;;2.05;1.95;;;;;;;-144.30;27.47;81955.03;5110753;28;20190;-52
2023/08/11 09:07:39;;;;;;;2.50;2.30;;;;;;;-144.30;27.83;81818.00;5110822;28;20662;-51
2023/08/11 09:10:12;;;;;;;2.40;2.30;;;;;;;-144.30;27.05;81913.34;5110812;28;20191;-56
2023/08/11 09:12:44;;;;;;;3.65;2.30;;;;;;;-144.30;26.84;81859.72;5111057;28;20782;-52
2023/08/11 09:15:19;;;;;;;2.60;2.40;;;;;;;-144.30;27.20;82026.53;5110472;28;20673;-52
2023/08/11 09:17:50;;;;;;;2.17;1.98;;;;;;;-144.30;27.25;81998.72;5111042;28;20584;-52
2023/08/11 09:20:26;;;;;;;2.15;2.00;;;;;;;-144.30;27.50;81982.84;5109963;28;20237;-55
2023/08/11 09:23:03;;;;;;;5.30;2.20;;;;;;;-144.30;27.59;82121.88;5110635;28;20198;-56
2023/08/11 09:25:40;;;;;;;2.22;1.95;;;;;;;-144.30;27.86;82209.25;5109821;28;20198;-50
2023/08/11 09:28:09;;;;;;;2.60;2.40;;;;;;;-144.30;27.78;82121.88;5110231;28;20195;-51
2023/08/11 09:30:38;;;;;;;2.58;2.13;;;;;;;-144.30;27.80;82006.69;5104969;28;20607;-56
2023/08/11 09:33:09;;;;;;;4.40;2.72;;;;;;;-144.30;27.66;82046.41;5110018;28;20194;-56
2023/08/11 09:35:39;;;;;;;5.88;2.95;;;;;;;-144.30;27.87;82026.53;5109948;28;20195;-56
2023/08/11 09:38:10;;;;;;;4.25;2.75;;;;;;;-144.30;27.83;82002.69;5109705;28;20214;-58
2023/08/11 09:40:48;;;;;;;2.33;2.22;;;;;;;-144.30;27.30;82082.13;5109249;28;20284;-57
2023/08/11 09:43:23;;;;;;;10.88;3.13;;;;;;;-144.30;27.11;82038.44;5108786;28;20226;-56
2023/08/11 09:46:00;;;;;;;9.27;2.42;;;;;;;-144.30;27.16;81927.22;5109687;28;20205;-51
2023/08/11 09:48:33;;;;;;;4.22;2.13;;;;;;;-144.30;27.00;81851.78;5108718;28;20738;-52
2023/08/11 09:51:10;;;;;;;2.22;2.13;;;;;;;-144.30;26.84;81889.50;5109160;28;20190;-52
2023/08/11 09:53:45;;;;;;;2.33;2.15;;;;;;;-144.30;26.83;81959.00;5109256;28;20243;-56
2023/08/11 09:56:19;;;;;;;2.30;2.10;;;;;;;-144.30;26.75;81982.84;5109271;28;20198;-50
2023/08/11 09:58:55;;;;;;;2.15;1.85;;;;;;;-144.30;27.02;82042.41;5109342;28;20217;-51
2023/08/11 10:01:27;;;;;;;2.20;2.10;;;;;;;-144.30;27.31;82046.41;5109645;28;20730;-56
2023/08/11 10:04:07;;;;;;;2.38;2.28;;;;;;;-144.30;27.62;81992.78;5110244;28;20619;-57
2023/08/11 10:06:38;;;;;;;2.15;2.05;;;;;;;-144.30;27.38;82145.69;5109825;28;20190;-56
2023/08/11 10:09:13;;;;;;;2.30;2.15;;;;;;;-144.30;28.39;82274.78;5109732;28;20646;-56
2023/08/11 10:11:47;;;;;;;2.45;2.25;;;;;;;-144.30;27.70;82235.06;5109597;28;20589;-55
2023/08/11 10:14:23;;;;;;;3.47;1.85;;;;;;;-144.30;27.02;82102.00;5108427;28;20718;-56
2023/08/11 10:16:57;;;;;;;8.13;2.42;;;;;;;-144.30;27.71;81998.72;5108878;28;20261;-56
2023/08/11 10:19:28;;;;;;;3.13;2.80;;;;;;;-144.30;27.57;82024.56;5106822;28;20191;-56
2023/08/11 10:22:00;;;;;;;4.38;2.95;;;;;;;-144.30;27.94;82018.59;5103728;28;20220;-56
2023/08/11 10:24:40;;;;;;;3.25;2.58;;;;;;;-144.30;27.98;82117.88;5106770;28;20199;-52
2023/08/11 10:27:14;;;;;;;3.35;2.40;;;;;;;-144.30;27.54;82225.13;5106778;28;20251;-52
2023/08/11 10:29:48;;;;;;;4.10;2.15;;;;;;;-144.30;27.83;82378.06;5109234;28;20285;-55
2023/08/11 10:32:25;;;;;;;2.17;1.98;;;;;;;-144.30;29.16;82511.16;5108742;28;20198;-55
2023/08/11 10:34:57;;;;;;;1.80;1.70;;;;;;;-144.30;31.96;82594.56;5106779;28;20688;-55
2023/08/11 10:37:35;;;;;;;2.70;2.50;;;;;;;-144.30;29.77;82515.13;5111149;28;20707;-55
2023/08/11 10:40:13;;;;;;;3.40;3.03;;;;;;;-144.30;29.29;82602.53;5112859;28;20190;-55
2023/08/11 10:42:46;;;;;;;2.10;2.00;;;;;;;-144.30;29.41;82719.72;5111900;28;20592;-54
2023/08/11 10:45:21;;;;;;;2.78;2.58;;;;;;;-144.30;30.49;82745.53;5110815;28;20639;-55
2023/08/11 10:47:56;;;;;;;2.08;1.98;;;;;;;-144.30;30.33;82803.16;5111018;28;20204;-55
2023/08/11 10:50:25;;;;;;;3.97;1.92;;;;;;;-144.30;30.14;82898.50;5112351;28;20275;-51
2023/08/11 10:53:06;;;;;;;1.80;1.70;;;;;;;-144.30;30.31;82892.53;5112244;28;20914;-51
2023/08/11 10:55:57;;;;;;;2.75;2.65;;;;;;;-144.30;30.74;82908.44;5112642;28;20195;-55
2023/08/11 10:58:30;;;;;;;2.10;2.00;;;;;;;-144.30;30.59;82977.97;5110659;28;20729;-55
2023/08/11 11:01:01;;;;;;;4.55;2.28;;;;;;;-144.30;31.44;82968.03;5111673;28;20191;-55
2023/08/11 11:03:35;;;;;;;3.63;2.22;;;;;;;-144.30;32.74;82942.19;5111342;28;20234;-51
2023/08/11 11:06:10;;;;;;;5.70;2.05;;;;;;;-144.30;30.75;82944.19;5111723;28;20194;-52
2023/08/11 11:08:41;;;;;;;2.58;2.13;;;;;;;-144.30;30.56;82944.19;5109924;28;20193;-55
2023/08/11 11:11:14;;;;;;;2.95;2.17;;;;;;;-144.30;31.36;82936.25;5111333;28;20681;-57
2023/08/11 11:13:50;;;;;;;2.13;2.03;;;;;;;-144.30;30.72;82979.94;5111457;28;20198;-55
2023/08/11 11:16:22;;;;;;;2.38;1.98;;;;;;;-144.30;30.80;82904.47;5110832;28;20214;-51
2023/08/11 11:18:54;;;;;;;3.13;2.35;;;;;;;-144.30;30.61;82975.97;5111401;28;20210;-57
2023/08/11 11:21:27;;;;;;;2.05;1.95;;;;;;;-144.30;30.51;82995.84;5111637;28;20201;-52
2023/08/11 11:24:01;;;;;;;2.20;2.10;;;;;;;-144.30;30.52;82995.84;5110273;28;20670;-52
2023/08/11 11:26:36;;;;;;;1.90;1.80;;;;;;;-144.30;30.63;82995.84;5109643;28;20182;-55
2023/08/11 11:29:07;;;;;;;2.13;2.03;;;;;;;-144.30;31.08;82958.09;5112218;28;20194;-52
2023/08/11 11:31:42;;;;;;;2.30;2.20;;;;;;;-144.30;30.69;82968.03;5112065;28;20190;-51
2023/08/11 11:34:15;;;;;;;2.20;2.10;;;;;;;-144.30;30.40;82954.13;5110279;28;20653;-53
2023/08/11 11:36:49;;;;;;;2.05;1.95;;;;;;;-144.30;31.06;82973.97;5112534;28;20217;-55
2023/08/11 11:39:22;;;;;;;2.05;1.95;;;;;;;-144.30;30.82;82985.91;5110329;28;20218;-55
2023/08/11 11:41:57;;;;;;;2.72;2.53;;;;;;;-144.30;30.83;82979.94;5109307;28;20672;-56
2023/08/11 11:44:29;;;;;;;2.08;1.98;;;;;;;-144.30;30.26;82991.88;5111745;28;20666;-56
2023/08/11 11:47:03;;;;;;;4.88;2.58;;;;;;;-144.30;30.72;82995.84;5111600;28;20235;-55
2023/08/11 11:49:35;;;;;;;2.35;2.13;;;;;;;-144.30;30.31;82991.88;5109994;28;20190;-55
2023/08/11 11:52:08;;;;;;;2.22;2.10;;;;;;;-144.30;30.21;83067.34;5111711;28;20190;-55
2023/08/11 11:54:43;;;;;;;2.58;2.38;;;;;;;-144.30;31.10;83047.50;5110859;28;20191;-55
2023/08/11 11:57:14;;;;;;;6.40;2.53;;;;;;;-144.30;30.63;83081.25;5109748;28;20186;-52
2023/08/11 11:59:48;;;;;;;3.60;2.28;;;;;;;-144.30;30.98;83059.41;5110937;28;20256;-50
2023/08/11 12:02:39;;;;;;;4.47;2.50;;;;;;;-144.30;30.52;82985.91;5111574;28;20273;-50
2023/08/11 12:05:10;;;;;;;4.18;2.10;;;;;;;-144.30;30.52;82960.06;5110810;28;20197;-51
2023/08/11 12:07:44;;;;;;;2.00;1.90;;;;;;;-144.30;30.31;82892.53;5111557;28;20201;-51
2023/08/11 12:10:20;;;;;;;3.45;2.40;;;;;;;-144.30;30.37;82908.44;5109472;28;20682;-52
2023/08/11 12:13:06;;;;;;;2.05;1.95;;;;;;;-144.30;29.77;82870.69;5109242;28;20190;-55
2023/08/11 12:15:38;;;;;;;2.05;1.95;;;;;;;-144.30;29.92;82819.03;5109590;28;20222;-55
2023/08/11 12:18:08;;;;;;;2.08;1.98;;;;;;;-144.30;29.52;82803.16;5107969;28;20211;-55
2023/08/11 12:20:41;;;;;;;1.88;1.77;;;;;;;-144.30;29.34;82801.16;5111283;28;20198;-55
2023/08/11 12:23:12;;;;;;;3.08;2.85;;;;;;;-144.30;29.59;82771.38;5107988;28;20195;-55
2023/08/11 12:25:44;;;;;;;5.00;3.80;;;;;;;-144.30;30.05;82765.41;5111171;28;20243;-52
2023/08/11 12:28:16;;;;;;;2.08;1.98;;;;;;;-144.30;29.53;82769.38;5109077;28;20265;-55
2023/08/11 12:30:48;;;;;;;3.28;1.98;;;;;;;-144.30;29.80;82848.84;5111120;28;20195;-55
2023/08/11 12:33:17;;;;;;;2.10;2.00;;;;;;;-144.30;30.08;82888.56;5110136;28;20225;-55
2023/08/11 12:35:49;;;;;;;2.13;2.03;;;;;;;-144.30;29.85;82868.69;5110883;28;20584;-55
2023/08/11 12:38:19;;;;;;;2.53;2.20;;;;;;;-144.30;30.09;82932.28;5110802;28;20253;-56
2023/08/11 12:40:52;;;;;;;2.00;1.90;;;;;;;-144.30;30.50;82908.44;5107908;28;20294;-55
2023/08/11 12:43:24;;;;;;;2.30;2.20;;;;;;;-144.30;30.52;82900.47;5110782;28;20662;-55
2023/08/11 12:46:00;;;;;;;2.00;1.90;;;;;;;-144.30;30.63;82962.06;5107908;28;20202;-56